Saint Just, Puerto Rico
Current Conditions -  °F | °C
As of 3:56 PM on Wednesday 26 Nov 2014 (Local Time) from TJSJ Reporting Station
Scattered Clouds Scattered Clouds  
Wind Chill: 83°   Ceiling: Unl
Heat Index: 89°   Visibility: 10mi
Dew Point: 74°   Wind: 13mph
Humidity: 74%   Direction: 70°ENE
Pressure: 29.97"   Gusts: NA
Location:  18.37°N, 66.01°W
Report Text: TJSJ 261956Z 07011KT 10SM SCT030 28/23 A2997 RMK AO2 SLP147 VCSH SE T02830233
Loading
Personal Weather Stations






























Interactive Weather Map New forecast layout! Learn more

10-Day Weather Forecast

Advertisements
Track Severe Weather on mobile